sensor_id;sensor_type;location;lat;lon;timestamp;P1;durP1;ratioP1;P2;durP2;ratioP2
22129;SDS011;11231;50.746;4.272;2023-10-08T00:00:23;11.57;;;3.77;;
22129;SDS011;11231;50.746;4.272;2023-10-08T00:03:12;8.33;;;3.57;;
22129;SDS011;11231;50.746;4.272;2023-10-08T00:05:39;9.80;;;3.77;;
22129;SDS011;11231;50.746;4.272;2023-10-08T00:08:08;8.20;;;3.13;;
22129;SDS011;11231;50.746;4.272;2023-10-08T00:10:43;10.07;;;3.50;;
22129;SDS011;11231;50.746;4.272;2023-10-08T00:13:10;11.33;;;3.70;;
22129;SDS011;11231;50.746;4.272;2023-10-08T00:15:38;10.20;;;3.17;;
22129;SDS011;11231;50.746;4.272;2023-10-08T00:18:15;9.23;;;3.70;;
22129;SDS011;11231;50.746;4.272;2023-10-08T00:20:42;9.93;;;3.63;;
22129;SDS011;11231;50.746;4.272;2023-10-08T00:23:16;11.33;;;3.53;;
22129;SDS011;11231;50.746;4.272;2023-10-08T00:25:43;9.27;;;3.03;;
22129;SDS011;11231;50.746;4.272;2023-10-08T00:28:14;8.07;;;3.40;;
22129;SDS011;11231;50.746;4.272;2023-10-08T00:30:42;10.40;;;3.73;;
22129;SDS011;11231;50.746;4.272;2023-10-08T00:33:09;9.37;;;3.60;;
22129;SDS011;11231;50.746;4.272;2023-10-08T00:35:39;7.77;;;3.50;;
22129;SDS011;11231;50.746;4.272;2023-10-08T00:38:07;11.03;;;3.50;;
22129;SDS011;11231;50.746;4.272;2023-10-08T00:40:40;8.87;;;3.20;;
22129;SDS011;11231;50.746;4.272;2023-10-08T00:45:58;8.47;;;3.53;;
22129;SDS011;11231;50.746;4.272;2023-10-08T00:48:42;9.87;;;3.63;;
22129;SDS011;11231;50.746;4.272;2023-10-08T00:51:10;9.73;;;3.30;;
22129;SDS011;11231;50.746;4.272;2023-10-08T00:56:26;12.83;;;3.50;;
22129;SDS011;11231;50.746;4.272;2023-10-08T00:59:13;11.07;;;4.00;;
22129;SDS011;11231;50.746;4.272;2023-10-08T01:01:43;10.03;;;3.30;;
22129;SDS011;11231;50.746;4.272;2023-10-08T01:04:20;9.10;;;3.50;;
22129;SDS011;11231;50.746;4.272;2023-10-08T01:06:53;8.63;;;3.20;;
22129;SDS011;11231;50.746;4.272;2023-10-08T01:09:29;11.23;;;3.40;;
22129;SDS011;11231;50.746;4.272;2023-10-08T01:12:23;10.50;;;3.97;;
22129;SDS011;11231;50.746;4.272;2023-10-08T01:14:53;12.53;;;4.00;;
22129;SDS011;11231;50.746;4.272;2023-10-08T01:17:33;9.73;;;3.87;;
22129;SDS011;11231;50.746;4.272;2023-10-08T01:20:16;8.57;;;3.23;;
22129;SDS011;11231;50.746;4.272;2023-10-08T01:23:00;8.77;;;3.13;;
22129;SDS011;11231;50.746;4.272;2023-10-08T01:25:28;11.43;;;3.73;;
22129;SDS011;11231;50.746;4.272;2023-10-08T01:27:58;9.13;;;3.70;;
22129;SDS011;11231;50.746;4.272;2023-10-08T01:30:34;11.87;;;3.97;;
22129;SDS011;11231;50.746;4.272;2023-10-08T01:33:07;10.97;;;3.70;;
22129;SDS011;11231;50.746;4.272;2023-10-08T01:35:38;10.97;;;3.47;;
22129;SDS011;11231;50.746;4.272;2023-10-08T01:38:05;9.97;;;3.60;;
22129;SDS011;11231;50.746;4.272;2023-10-08T01:40:33;10.43;;;3.70;;
22129;SDS011;11231;50.746;4.272;2023-10-08T01:42:59;11.70;;;3.93;;
22129;SDS011;11231;50.746;4.272;2023-10-08T01:45:26;14.27;;;3.77;;
22129;SDS011;11231;50.746;4.272;2023-10-08T01:47:59;11.77;;;3.57;;
22129;SDS011;11231;50.746;4.272;2023-10-08T01:50:29;9.43;;;3.63;;
22129;SDS011;11231;50.746;4.272;2023-10-08T01:52:56;9.83;;;3.70;;
22129;SDS011;11231;50.746;4.272;2023-10-08T01:55:26;8.93;;;3.67;;
22129;SDS011;11231;50.746;4.272;2023-10-08T01:57:58;11.37;;;3.57;;
22129;SDS011;11231;50.746;4.272;2023-10-08T02:00:28;11.80;;;3.60;;
22129;SDS011;11231;50.746;4.272;2023-10-08T02:02:54;11.37;;;3.80;;
22129;SDS011;11231;50.746;4.272;2023-10-08T02:05:27;8.90;;;3.73;;
22129;SDS011;11231;50.746;4.272;2023-10-08T02:07:56;10.20;;;3.83;;
22129;SDS011;11231;50.746;4.272;2023-10-08T02:10:23;12.57;;;3.90;;
22129;SDS011;11231;50.746;4.272;2023-10-08T02:12:50;10.27;;;3.53;;
22129;SDS011;11231;50.746;4.272;2023-10-08T02:18:17;9.87;;;3.73;;
22129;SDS011;11231;50.746;4.272;2023-10-08T02:20:50;9.97;;;3.70;;
22129;SDS011;11231;50.746;4.272;2023-10-08T02:23:20;11.23;;;3.60;;
22129;SDS011;11231;50.746;4.272;2023-10-08T02:25:46;11.83;;;3.80;;
22129;SDS011;11231;50.746;4.272;2023-10-08T02:28:13;10.20;;;3.40;;
22129;SDS011;11231;50.746;4.272;2023-10-08T02:30:41;11.60;;;3.40;;
22129;SDS011;11231;50.746;4.272;2023-10-08T02:33:10;10.67;;;3.77;;
22129;SDS011;11231;50.746;4.272;2023-10-08T02:35:43;10.37;;;3.90;;
22129;SDS011;11231;50.746;4.272;2023-10-08T02:38:14;10.17;;;3.70;;
22129;SDS011;11231;50.746;4.272;2023-10-08T02:40:44;10.30;;;3.90;;
22129;SDS011;11231;50.746;4.272;2023-10-08T02:43:14;10.10;;;3.40;;
22129;SDS011;11231;50.746;4.272;2023-10-08T02:45:41;9.37;;;3.60;;
22129;SDS011;11231;50.746;4.272;2023-10-08T02:48:09;10.47;;;3.57;;
22129;SDS011;11231;50.746;4.272;2023-10-08T02:50:42;11.63;;;4.10;;
22129;SDS011;11231;50.746;4.272;2023-10-08T02:53:11;9.90;;;3.43;;
22129;SDS011;11231;50.746;4.272;2023-10-08T02:55:45;10.43;;;3.43;;
22129;SDS011;11231;50.746;4.272;2023-10-08T02:58:37;13.17;;;3.90;;
22129;SDS011;11231;50.746;4.272;2023-10-08T03:01:04;14.30;;;4.00;;
22129;SDS011;11231;50.746;4.272;2023-10-08T03:03:34;12.00;;;3.80;;
22129;SDS011;11231;50.746;4.272;2023-10-08T03:06:02;11.37;;;3.80;;
22129;SDS011;11231;50.746;4.272;2023-10-08T03:08:29;8.97;;;3.63;;
22129;SDS011;11231;50.746;4.272;2023-10-08T03:10:56;10.00;;;3.40;;
22129;SDS011;11231;50.746;4.272;2023-10-08T03:13:32;9.67;;;3.63;;
22129;SDS011;11231;50.746;4.272;2023-10-08T03:16:06;13.90;;;4.07;;
22129;SDS011;11231;50.746;4.272;2023-10-08T03:18:38;10.93;;;3.67;;
22129;SDS011;11231;50.746;4.272;2023-10-08T03:21:15;10.80;;;3.77;;
22129;SDS011;11231;50.746;4.272;2023-10-08T03:24:08;12.77;;;3.77;;
22129;SDS011;11231;50.746;4.272;2023-10-08T03:26:58;9.40;;;3.60;;
22129;SDS011;11231;50.746;4.272;2023-10-08T03:29:43;8.83;;;3.60;;
22129;SDS011;11231;50.746;4.272;2023-10-08T03:32:12;12.03;;;4.60;;
22129;SDS011;11231;50.746;4.272;2023-10-08T03:34:49;10.83;;;3.90;;
22129;SDS011;11231;50.746;4.272;2023-10-08T03:37:21;9.27;;;3.77;;
22129;SDS011;11231;50.746;4.272;2023-10-08T03:40:09;12.20;;;3.50;;
22129;SDS011;11231;50.746;4.272;2023-10-08T03:42:51;10.03;;;3.80;;
22129;SDS011;11231;50.746;4.272;2023-10-08T03:45:24;9.43;;;3.73;;
22129;SDS011;11231;50.746;4.272;2023-10-08T03:48:08;11.33;;;4.20;;
22129;SDS011;11231;50.746;4.272;2023-10-08T03:50:40;11.27;;;4.43;;
22129;SDS011;11231;50.746;4.272;2023-10-08T03:53:08;9.80;;;3.87;;
22129;SDS011;11231;50.746;4.272;2023-10-08T03:55:39;10.07;;;4.10;;
22129;SDS011;11231;50.746;4.272;2023-10-08T03:58:08;8.80;;;3.63;;
22129;SDS011;11231;50.746;4.272;2023-10-08T04:00:57;11.93;;;3.70;;
22129;SDS011;11231;50.746;4.272;2023-10-08T04:03:44;12.53;;;3.93;;
22129;SDS011;11231;50.746;4.272;2023-10-08T04:06:16;7.33;;;3.57;;
22129;SDS011;11231;50.746;4.272;2023-10-08T04:08:47;8.53;;;3.77;;
22129;SDS011;11231;50.746;4.272;2023-10-08T04:11:52;9.07;;;3.57;;
22129;SDS011;11231;50.746;4.272;2023-10-08T04:14:24;11.93;;;4.00;;
22129;SDS011;11231;50.746;4.272;2023-10-08T04:16:50;11.27;;;4.10;;
22129;SDS011;11231;50.746;4.272;2023-10-08T04:19:20;9.90;;;4.47;;
22129;SDS011;11231;50.746;4.272;2023-10-08T04:21:52;10.87;;;4.10;;
22129;SDS011;11231;50.746;4.272;2023-10-08T04:24:22;9.47;;;4.10;;
22129;SDS011;11231;50.746;4.272;2023-10-08T04:27:04;12.87;;;4.20;;
22129;SDS011;11231;50.746;4.272;2023-10-08T04:29:33;10.73;;;4.03;;
22129;SDS011;11231;50.746;4.272;2023-10-08T04:32:05;15.67;;;3.93;;
22129;SDS011;11231;50.746;4.272;2023-10-08T04:34:37;11.27;;;4.20;;
22129;SDS011;11231;50.746;4.272;2023-10-08T04:37:03;8.10;;;3.73;;
22129;SDS011;11231;50.746;4.272;2023-10-08T04:39:37;10.33;;;4.10;;
22129;SDS011;11231;50.746;4.272;2023-10-08T04:42:06;9.20;;;4.00;;
22129;SDS011;11231;50.746;4.272;2023-10-08T04:44:38;11.03;;;4.00;;
22129;SDS011;11231;50.746;4.272;2023-10-08T04:47:05;11.93;;;4.17;;
22129;SDS011;11231;50.746;4.272;2023-10-08T04:49:52;10.33;;;3.90;;
22129;SDS011;11231;50.746;4.272;2023-10-08T04:52:18;11.37;;;4.33;;
22129;SDS011;11231;50.746;4.272;2023-10-08T04:54:45;12.27;;;4.17;;
22129;SDS011;11231;50.746;4.272;2023-10-08T04:57:16;10.60;;;4.00;;
22129;SDS011;11231;50.746;4.272;2023-10-08T04:59:47;9.80;;;4.30;;
22129;SDS011;11231;50.746;4.272;2023-10-08T05:02:17;10.87;;;4.40;;
22129;SDS011;11231;50.746;4.272;2023-10-08T05:04:59;12.63;;;4.37;;
22129;SDS011;11231;50.746;4.272;2023-10-08T05:07:34;13.97;;;4.30;;
22129;SDS011;11231;50.746;4.272;2023-10-08T05:10:20;10.10;;;3.70;;
22129;SDS011;11231;50.746;4.272;2023-10-08T05:12:48;10.93;;;4.03;;
22129;SDS011;11231;50.746;4.272;2023-10-08T05:15:30;11.37;;;4.47;;
22129;SDS011;11231;50.746;4.272;2023-10-08T05:18:07;12.10;;;3.97;;
22129;SDS011;11231;50.746;4.272;2023-10-08T05:20:51;10.97;;;4.50;;
22129;SDS011;11231;50.746;4.272;2023-10-08T05:23:17;11.87;;;4.40;;
22129;SDS011;11231;50.746;4.272;2023-10-08T05:25:51;12.43;;;4.50;;
22129;SDS011;11231;50.746;4.272;2023-10-08T05:28:40;12.40;;;4.50;;
22129;SDS011;11231;50.746;4.272;2023-10-08T05:31:25;9.93;;;4.13;;
22129;SDS011;11231;50.746;4.272;2023-10-08T05:34:12;10.80;;;4.37;;
22129;SDS011;11231;50.746;4.272;2023-10-08T05:36:57;8.93;;;4.23;;
22129;SDS011;11231;50.746;4.272;2023-10-08T05:39:32;11.53;;;4.67;;
22129;SDS011;11231;50.746;4.272;2023-10-08T05:42:04;12.60;;;4.37;;
22129;SDS011;11231;50.746;4.272;2023-10-08T05:44:41;13.40;;;4.23;;
22129;SDS011;11231;50.746;4.272;2023-10-08T05:47:13;13.17;;;4.40;;
22129;SDS011;11231;50.746;4.272;2023-10-08T05:50:03;9.93;;;4.23;;
22129;SDS011;11231;50.746;4.272;2023-10-08T05:53:03;10.23;;;4.53;;
22129;SDS011;11231;50.746;4.272;2023-10-08T05:55:41;11.63;;;4.30;;
22129;SDS011;11231;50.746;4.272;2023-10-08T05:58:38;9.20;;;3.80;;
22129;SDS011;11231;50.746;4.272;2023-10-08T06:01:11;12.33;;;4.40;;
22129;SDS011;11231;50.746;4.272;2023-10-08T06:03:51;13.83;;;4.70;;
22129;SDS011;11231;50.746;4.272;2023-10-08T06:06:46;12.63;;;4.43;;
22129;SDS011;11231;50.746;4.272;2023-10-08T06:09:23;13.50;;;4.83;;
22129;SDS011;11231;50.746;4.272;2023-10-08T06:12:00;11.83;;;4.30;;
22129;SDS011;11231;50.746;4.272;2023-10-08T06:14:38;13.37;;;4.30;;
22129;SDS011;11231;50.746;4.272;2023-10-08T06:17:33;11.80;;;3.93;;
22129;SDS011;11231;50.746;4.272;2023-10-08T06:20:10;12.13;;;4.03;;
22129;SDS011;11231;50.746;4.272;2023-10-08T06:22:52;12.17;;;4.07;;
22129;SDS011;11231;50.746;4.272;2023-10-08T06:25:51;13.50;;;4.17;;
22129;SDS011;11231;50.746;4.272;2023-10-08T06:28:42;11.97;;;4.90;;
22129;SDS011;11231;50.746;4.272;2023-10-08T06:31:14;10.20;;;4.17;;
22129;SDS011;11231;50.746;4.272;2023-10-08T06:33:43;13.17;;;4.67;;
22129;SDS011;11231;50.746;4.272;2023-10-08T06:36:10;9.23;;;4.30;;
22129;SDS011;11231;50.746;4.272;2023-10-08T06:38:41;12.90;;;4.07;;
22129;SDS011;11231;50.746;4.272;2023-10-08T06:41:27;9.67;;;3.63;;
22129;SDS011;11231;50.746;4.272;2023-10-08T06:44:05;10.80;;;4.03;;
22129;SDS011;11231;50.746;4.272;2023-10-08T06:46:52;12.00;;;4.70;;
22129;SDS011;11231;50.746;4.272;2023-10-08T06:53:53;12.37;;;4.33;;
22129;SDS011;11231;50.746;4.272;2023-10-08T06:56:33;9.83;;;4.00;;
22129;SDS011;11231;50.746;4.272;2023-10-08T06:59:48;9.47;;;3.70;;
22129;SDS011;11231;50.746;4.272;2023-10-08T07:03:03;9.93;;;3.93;;
22129;SDS011;11231;50.746;4.272;2023-10-08T07:05:35;9.10;;;4.10;;
22129;SDS011;11231;50.746;4.272;2023-10-08T07:08:25;9.47;;;3.87;;
22129;SDS011;11231;50.746;4.272;2023-10-08T07:11:12;8.97;;;3.90;;
22129;SDS011;11231;50.746;4.272;2023-10-08T07:14:29;12.87;;;4.33;;
22129;SDS011;11231;50.746;4.272;2023-10-08T07:17:48;11.30;;;4.40;;
22129;SDS011;11231;50.746;4.272;2023-10-08T07:24:49;9.37;;;4.20;;
22129;SDS011;11231;50.746;4.272;2023-10-08T07:44:48;12.83;;;4.57;;
22129;SDS011;11231;50.746;4.272;2023-10-08T07:50:51;14.63;;;4.60;;
22129;SDS011;11231;50.746;4.272;2023-10-08T07:56:48;9.23;;;4.43;;
22129;SDS011;11231;50.746;4.272;2023-10-08T07:59:25;11.77;;;4.67;;
22129;SDS011;11231;50.746;4.272;2023-10-08T08:05:59;11.33;;;5.07;;
22129;SDS011;11231;50.746;4.272;2023-10-08T08:23:30;11.03;;;4.70;;
22129;SDS011;11231;50.746;4.272;2023-10-08T08:26:44;12.77;;;4.70;;
22129;SDS011;11231;50.746;4.272;2023-10-08T08:30:25;13.67;;;5.10;;
22129;SDS011;11231;50.746;4.272;2023-10-08T08:33:51;9.80;;;4.80;;
22129;SDS011;11231;50.746;4.272;2023-10-08T08:51:01;16.80;;;7.60;;
22129;SDS011;11231;50.746;4.272;2023-10-08T08:53:37;15.10;;;5.30;;
22129;SDS011;11231;50.746;4.272;2023-10-08T08:56:28;14.50;;;5.40;;
22129;SDS011;11231;50.746;4.272;2023-10-08T08:59:44;15.90;;;5.13;;
22129;SDS011;11231;50.746;4.272;2023-10-08T09:07:24;12.07;;;5.37;;
22129;SDS011;11231;50.746;4.272;2023-10-08T09:17:35;14.43;;;5.37;;
22129;SDS011;11231;50.746;4.272;2023-10-08T09:20:39;12.27;;;4.80;;
22129;SDS011;11231;50.746;4.272;2023-10-08T09:27:00;14.90;;;4.37;;
22129;SDS011;11231;50.746;4.272;2023-10-08T09:43:40;12.57;;;5.27;;
22129;SDS011;11231;50.746;4.272;2023-10-08T09:57:25;13.70;;;5.60;;
22129;SDS011;11231;50.746;4.272;2023-10-08T10:00:23;16.17;;;5.50;;
22129;SDS011;11231;50.746;4.272;2023-10-08T10:03:38;15.45;;;4.82;;
22129;SDS011;11231;50.746;4.272;2023-10-08T10:17:36;13.68;;;4.93;;
22129;SDS011;11231;50.746;4.272;2023-10-08T10:25:56;15.85;;;5.32;;
22129;SDS011;11231;50.746;4.272;2023-10-08T10:33:30;17.52;;;5.55;;
22129;SDS011;11231;50.746;4.272;2023-10-08T10:51:15;14.50;;;5.85;;
22129;SDS011;11231;50.746;4.272;2023-10-08T10:54:06;12.70;;;5.53;;
22129;SDS011;11231;50.746;4.272;2023-10-08T11:17:56;23.35;;;11.63;;
22129;SDS011;11231;50.746;4.272;2023-10-08T11:20:25;16.70;;;9.38;;
22129;SDS011;11231;50.746;4.272;2023-10-08T11:22:52;18.15;;;6.85;;
22129;SDS011;11231;50.746;4.272;2023-10-08T11:25:21;13.60;;;5.43;;
22129;SDS011;11231;50.746;4.272;2023-10-08T11:27:56;12.38;;;5.25;;
22129;SDS011;11231;50.746;4.272;2023-10-08T11:30:34;13.48;;;4.82;;
22129;SDS011;11231;50.746;4.272;2023-10-08T11:33:00;12.27;;;5.45;;
22129;SDS011;11231;50.746;4.272;2023-10-08T11:35:26;13.60;;;5.82;;
22129;SDS011;11231;50.746;4.272;2023-10-08T11:37:57;12.18;;;4.97;;
22129;SDS011;11231;50.746;4.272;2023-10-08T11:40:26;11.55;;;5.10;;
22129;SDS011;11231;50.746;4.272;2023-10-08T11:43:14;13.13;;;5.47;;
22129;SDS011;11231;50.746;4.272;2023-10-08T11:45:43;12.48;;;5.05;;
22129;SDS011;11231;50.746;4.272;2023-10-08T11:48:13;14.50;;;5.80;;
22129;SDS011;11231;50.746;4.272;2023-10-08T11:50:42;13.30;;;6.10;;
22129;SDS011;11231;50.746;4.272;2023-10-08T11:53:08;10.98;;;5.80;;
22129;SDS011;11231;50.746;4.272;2023-10-08T11:55:37;11.82;;;5.30;;
22129;SDS011;11231;50.746;4.272;2023-10-08T11:58:07;13.23;;;5.50;;
22129;SDS011;11231;50.746;4.272;2023-10-08T12:00:37;13.93;;;5.80;;
22129;SDS011;11231;50.746;4.272;2023-10-08T12:03:10;14.68;;;5.22;;
22129;SDS011;11231;50.746;4.272;2023-10-08T12:05:45;12.48;;;5.90;;
22129;SDS011;11231;50.746;4.272;2023-10-08T12:08:16;13.65;;;5.97;;
22129;SDS011;11231;50.746;4.272;2023-10-08T12:10:43;11.90;;;5.30;;
22129;SDS011;11231;50.746;4.272;2023-10-08T12:13:11;15.13;;;5.75;;
22129;SDS011;11231;50.746;4.272;2023-10-08T12:15:37;15.57;;;5.88;;
22129;SDS011;11231;50.746;4.272;2023-10-08T12:18:09;15.50;;;6.20;;
22129;SDS011;11231;50.746;4.272;2023-10-08T12:20:51;13.65;;;6.20;;
22129;SDS011;11231;50.746;4.272;2023-10-08T12:23:19;15.15;;;6.22;;
22129;SDS011;11231;50.746;4.272;2023-10-08T12:25:53;12.95;;;5.63;;
22129;SDS011;11231;50.746;4.272;2023-10-08T12:28:21;13.75;;;5.95;;
22129;SDS011;11231;50.746;4.272;2023-10-08T12:30:49;10.68;;;5.40;;
22129;SDS011;11231;50.746;4.272;2023-10-08T12:33:20;11.75;;;5.82;;
22129;SDS011;11231;50.746;4.272;2023-10-08T12:35:52;13.13;;;6.15;;
22129;SDS011;11231;50.746;4.272;2023-10-08T12:38:21;14.23;;;5.80;;
22129;SDS011;11231;50.746;4.272;2023-10-08T12:40:53;15.38;;;6.28;;
22129;SDS011;11231;50.746;4.272;2023-10-08T12:45:46;13.90;;;6.18;;
22129;SDS011;11231;50.746;4.272;2023-10-08T12:48:21;13.02;;;6.55;;
22129;SDS011;11231;50.746;4.272;2023-10-08T12:50:49;11.55;;;6.30;;
22129;SDS011;11231;50.746;4.272;2023-10-08T12:53:19;15.13;;;6.28;;
22129;SDS011;11231;50.746;4.272;2023-10-08T12:55:49;13.88;;;6.15;;
22129;SDS011;11231;50.746;4.272;2023-10-08T12:58:19;14.40;;;6.82;;
22129;SDS011;11231;50.746;4.272;2023-10-08T13:00:48;14.27;;;6.47;;
22129;SDS011;11231;50.746;4.272;2023-10-08T13:03:22;14.15;;;7.00;;
22129;SDS011;11231;50.746;4.272;2023-10-08T13:05:49;16.85;;;6.78;;
22129;SDS011;11231;50.746;4.272;2023-10-08T13:08:21;15.90;;;6.43;;
22129;SDS011;11231;50.746;4.272;2023-10-08T13:10:47;13.82;;;6.57;;
22129;SDS011;11231;50.746;4.272;2023-10-08T13:13:13;15.80;;;6.20;;
22129;SDS011;11231;50.746;4.272;2023-10-08T13:15:39;14.13;;;6.22;;
22129;SDS011;11231;50.746;4.272;2023-10-08T13:18:07;13.90;;;5.55;;
22129;SDS011;11231;50.746;4.272;2023-10-08T13:20:33;14.10;;;5.68;;
22129;SDS011;11231;50.746;4.272;2023-10-08T13:23:02;12.90;;;6.22;;
22129;SDS011;11231;50.746;4.272;2023-10-08T13:25:31;13.25;;;5.55;;
22129;SDS011;11231;50.746;4.272;2023-10-08T13:28:01;14.25;;;5.82;;
22129;SDS011;11231;50.746;4.272;2023-10-08T13:30:27;14.35;;;5.55;;
22129;SDS011;11231;50.746;4.272;2023-10-08T13:32:53;14.65;;;5.53;;
22129;SDS011;11231;50.746;4.272;2023-10-08T13:35:19;12.35;;;5.15;;
22129;SDS011;11231;50.746;4.272;2023-10-08T13:37:45;11.40;;;5.05;;
22129;SDS011;11231;50.746;4.272;2023-10-08T13:40:14;16.05;;;5.40;;
22129;SDS011;11231;50.746;4.272;2023-10-08T13:42:43;13.57;;;5.85;;
22129;SDS011;11231;50.746;4.272;2023-10-08T13:45:09;13.23;;;5.35;;
22129;SDS011;11231;50.746;4.272;2023-10-08T13:47:41;14.35;;;5.65;;
22129;SDS011;11231;50.746;4.272;2023-10-08T13:50:07;13.45;;;5.25;;
22129;SDS011;11231;50.746;4.272;2023-10-08T13:52:36;12.02;;;5.30;;
22129;SDS011;11231;50.746;4.272;2023-10-08T13:55:07;13.02;;;5.68;;
22129;SDS011;11231;50.746;4.272;2023-10-08T13:57:39;14.63;;;5.53;;
22129;SDS011;11231;50.746;4.272;2023-10-08T14:00:08;13.23;;;5.88;;
22129;SDS011;11231;50.746;4.272;2023-10-08T14:02:43;14.02;;;5.45;;
22129;SDS011;11231;50.746;4.272;2023-10-08T14:05:10;10.90;;;5.15;;
22129;SDS011;11231;50.746;4.272;2023-10-08T14:07:40;15.15;;;5.03;;
22129;SDS011;11231;50.746;4.272;2023-10-08T14:10:09;13.95;;;5.32;;
22129;SDS011;11231;50.746;4.272;2023-10-08T14:12:46;14.98;;;5.20;;
22129;SDS011;11231;50.746;4.272;2023-10-08T14:15:16;18.20;;;5.60;;
22129;SDS011;11231;50.746;4.272;2023-10-08T14:17:43;13.70;;;5.72;;
22129;SDS011;11231;50.746;4.272;2023-10-08T14:20:19;14.05;;;5.78;;
22129;SDS011;11231;50.746;4.272;2023-10-08T14:22:48;11.68;;;5.20;;
22129;SDS011;11231;50.746;4.272;2023-10-08T14:25:25;17.90;;;5.65;;
22129;SDS011;11231;50.746;4.272;2023-10-08T14:27:53;13.32;;;5.22;;
22129;SDS011;11231;50.746;4.272;2023-10-08T14:30:20;14.52;;;5.63;;
22129;SDS011;11231;50.746;4.272;2023-10-08T14:32:50;13.63;;;5.55;;
22129;SDS011;11231;50.746;4.272;2023-10-08T14:35:15;12.40;;;5.45;;
22129;SDS011;11231;50.746;4.272;2023-10-08T14:38:00;12.32;;;5.13;;
22129;SDS011;11231;50.746;4.272;2023-10-08T14:40:46;10.63;;;4.60;;
22129;SDS011;11231;50.746;4.272;2023-10-08T14:43:30;11.82;;;4.90;;
22129;SDS011;11231;50.746;4.272;2023-10-08T14:46:00;13.23;;;5.50;;
22129;SDS011;11231;50.746;4.272;2023-10-08T14:48:34;12.85;;;5.55;;
22129;SDS011;11231;50.746;4.272;2023-10-08T14:51:00;13.63;;;5.40;;
22129;SDS011;11231;50.746;4.272;2023-10-08T14:53:28;12.35;;;5.20;;
22129;SDS011;11231;50.746;4.272;2023-10-08T14:55:56;13.48;;;5.40;;
22129;SDS011;11231;50.746;4.272;2023-10-08T14:58:22;11.75;;;5.20;;
22129;SDS011;11231;50.746;4.272;2023-10-08T15:00:48;12.50;;;5.03;;
22129;SDS011;11231;50.746;4.272;2023-10-08T15:03:14;10.88;;;4.85;;
22129;SDS011;11231;50.746;4.272;2023-10-08T15:05:40;12.38;;;4.55;;
22129;SDS011;11231;50.746;4.272;2023-10-08T15:08:06;12.52;;;4.55;;
22129;SDS011;11231;50.746;4.272;2023-10-08T15:10:35;11.65;;;4.60;;
22129;SDS011;11231;50.746;4.272;2023-10-08T15:13:01;10.73;;;4.68;;
22129;SDS011;11231;50.746;4.272;2023-10-08T15:15:26;18.30;;;5.00;;
22129;SDS011;11231;50.746;4.272;2023-10-08T15:17:59;11.68;;;4.63;;
22129;SDS011;11231;50.746;4.272;2023-10-08T15:20:27;12.00;;;4.50;;
22129;SDS011;11231;50.746;4.272;2023-10-08T15:22:55;13.45;;;4.63;;
22129;SDS011;11231;50.746;4.272;2023-10-08T15:25:21;11.55;;;4.85;;
22129;SDS011;11231;50.746;4.272;2023-10-08T15:27:47;11.68;;;4.40;;
22129;SDS011;11231;50.746;4.272;2023-10-08T15:30:14;13.65;;;4.50;;
22129;SDS011;11231;50.746;4.272;2023-10-08T15:32:43;11.85;;;4.50;;
22129;SDS011;11231;50.746;4.272;2023-10-08T15:35:12;12.27;;;4.55;;
22129;SDS011;11231;50.746;4.272;2023-10-08T15:37:40;12.85;;;5.20;;
22129;SDS011;11231;50.746;4.272;2023-10-08T15:40:06;11.13;;;4.43;;
22129;SDS011;11231;50.746;4.272;2023-10-08T15:42:34;10.43;;;4.88;;
22129;SDS011;11231;50.746;4.272;2023-10-08T15:45:01;10.05;;;4.65;;
22129;SDS011;11231;50.746;4.272;2023-10-08T15:47:28;15.45;;;5.13;;
22129;SDS011;11231;50.746;4.272;2023-10-08T15:49:56;12.38;;;4.85;;
22129;SDS011;11231;50.746;4.272;2023-10-08T15:52:24;12.50;;;4.47;;
22129;SDS011;11231;50.746;4.272;2023-10-08T15:54:50;11.05;;;4.97;;
22129;SDS011;11231;50.746;4.272;2023-10-08T15:57:16;10.40;;;4.80;;
22129;SDS011;11231;50.746;4.272;2023-10-08T15:59:42;11.30;;;4.35;;
22129;SDS011;11231;50.746;4.272;2023-10-08T16:02:08;10.75;;;4.25;;
22129;SDS011;11231;50.746;4.272;2023-10-08T16:04:33;12.15;;;4.80;;
22129;SDS011;11231;50.746;4.272;2023-10-08T16:06:59;11.63;;;4.70;;
22129;SDS011;11231;50.746;4.272;2023-10-08T16:09:25;11.88;;;4.75;;
22129;SDS011;11231;50.746;4.272;2023-10-08T16:11:51;10.38;;;4.57;;
22129;SDS011;11231;50.746;4.272;2023-10-08T16:14:17;11.52;;;4.90;;
22129;SDS011;11231;50.746;4.272;2023-10-08T16:16:45;11.18;;;4.75;;
22129;SDS011;11231;50.746;4.272;2023-10-08T16:19:15;11.35;;;4.65;;
22129;SDS011;11231;50.746;4.272;2023-10-08T16:21:43;11.82;;;4.80;;
22129;SDS011;11231;50.746;4.272;2023-10-08T16:24:10;12.10;;;4.75;;
22129;SDS011;11231;50.746;4.272;2023-10-08T16:26:41;12.45;;;4.75;;
22129;SDS011;11231;50.746;4.272;2023-10-08T16:29:10;12.73;;;4.97;;
22129;SDS011;11231;50.746;4.272;2023-10-08T16:31:39;12.25;;;5.25;;
22129;SDS011;11231;50.746;4.272;2023-10-08T16:34:08;12.70;;;5.23;;
22129;SDS011;11231;50.746;4.272;2023-10-08T16:36:35;11.88;;;4.90;;
22129;SDS011;11231;50.746;4.272;2023-10-08T16:39:01;11.60;;;4.65;;
22129;SDS011;11231;50.746;4.272;2023-10-08T16:41:27;13.57;;;5.22;;
22129;SDS011;11231;50.746;4.272;2023-10-08T16:43:53;12.32;;;5.07;;
22129;SDS011;11231;50.746;4.272;2023-10-08T16:46:19;11.95;;;4.88;;
22129;SDS011;11231;50.746;4.272;2023-10-08T16:48:44;13.27;;;5.32;;
22129;SDS011;11231;50.746;4.272;2023-10-08T16:51:11;14.60;;;4.68;;
22129;SDS011;11231;50.746;4.272;2023-10-08T16:53:39;14.43;;;4.53;;
22129;SDS011;11231;50.746;4.272;2023-10-08T16:56:07;12.00;;;4.88;;
22129;SDS011;11231;50.746;4.272;2023-10-08T16:58:32;11.65;;;5.53;;
22129;SDS011;11231;50.746;4.272;2023-10-08T17:00:58;16.67;;;6.77;;
22129;SDS011;11231;50.746;4.272;2023-10-08T17:03:24;15.00;;;6.90;;
22129;SDS011;11231;50.746;4.272;2023-10-08T17:05:50;14.20;;;7.33;;
22129;SDS011;11231;50.746;4.272;2023-10-08T17:08:15;16.73;;;7.20;;
22129;SDS011;11231;50.746;4.272;2023-10-08T17:10:43;19.63;;;8.10;;
22129;SDS011;11231;50.746;4.272;2023-10-08T17:13:09;15.20;;;6.63;;
22129;SDS011;11231;50.746;4.272;2023-10-08T17:15:37;15.63;;;6.30;;
22129;SDS011;11231;50.746;4.272;2023-10-08T17:18:04;16.17;;;5.93;;
22129;SDS011;11231;50.746;4.272;2023-10-08T17:20:31;14.30;;;6.00;;
22129;SDS011;11231;50.746;4.272;2023-10-08T17:22:57;11.93;;;5.97;;
22129;SDS011;11231;50.746;4.272;2023-10-08T17:25:23;16.03;;;6.20;;
22129;SDS011;11231;50.746;4.272;2023-10-08T17:27:49;13.13;;;5.80;;
22129;SDS011;11231;50.746;4.272;2023-10-08T17:30:15;13.43;;;6.13;;
22129;SDS011;11231;50.746;4.272;2023-10-08T17:32:46;13.43;;;6.00;;
22129;SDS011;11231;50.746;4.272;2023-10-08T17:35:13;13.50;;;6.07;;
22129;SDS011;11231;50.746;4.272;2023-10-08T17:37:44;11.67;;;6.03;;
22129;SDS011;11231;50.746;4.272;2023-10-08T17:40:11;17.83;;;7.13;;
22129;SDS011;11231;50.746;4.272;2023-10-08T17:42:38;15.73;;;6.93;;
22129;SDS011;11231;50.746;4.272;2023-10-08T17:45:05;14.83;;;7.07;;
22129;SDS011;11231;50.746;4.272;2023-10-08T17:47:32;16.83;;;7.40;;
22129;SDS011;11231;50.746;4.272;2023-10-08T17:49:58;20.50;;;10.00;;
22129;SDS011;11231;50.746;4.272;2023-10-08T17:52:24;14.57;;;6.87;;
22129;SDS011;11231;50.746;4.272;2023-10-08T17:54:50;15.33;;;7.00;;
22129;SDS011;11231;50.746;4.272;2023-10-08T17:57:17;15.53;;;6.60;;
22129;SDS011;11231;50.746;4.272;2023-10-08T17:59:44;16.27;;;6.80;;
22129;SDS011;11231;50.746;4.272;2023-10-08T18:02:13;15.60;;;6.73;;
22129;SDS011;11231;50.746;4.272;2023-10-08T18:04:42;14.43;;;6.57;;
22129;SDS011;11231;50.746;4.272;2023-10-08T18:07:11;16.40;;;7.50;;
22129;SDS011;11231;50.746;4.272;2023-10-08T18:09:37;15.27;;;6.97;;